Time;durP1;ratioP1;P1;durP2;ratioP2;P2;SDS_P1;SDS_P2;PMS_P1;PMS_P2;Temp;Humidity;BMP_temperature;BMP_pressure;BME280_temperature;BME280_humidity;BME280_pressure;Samples;Min_cycle;Max_cycle;Signal;HPM_P1;HPM_P2
2021/05/03 00:00:09;;;;;;;0.93;0.60;;;;;;;9.81;69.83;92428.11;1802777;79;21510;-80
2021/05/03 00:02:36;;;;;;;0.95;0.90;;;;;;;9.77;69.82;92428.77;1809232;77;21279;-82
2021/05/03 00:05:08;;;;;;;2.62;1.15;;;;;;;9.75;69.72;92433.26;1770413;81;21156;-81
2021/05/03 00:07:35;;;;;;;0.82;0.50;;;;;;;9.75;69.85;92428.42;1774364;80;21768;-82
2021/05/03 00:10:03;;;;;;;1.50;0.90;;;;;;;9.71;70.66;92456.98;1798115;77;22130;-79
2021/05/03 00:12:32;;;;;;;0.70;0.65;;;;;;;9.67;70.62;92460.34;1816814;77;21200;-82
2021/05/03 00:15:01;;;;;;;0.88;0.88;;;;;;;9.63;70.67;92468.55;1806074;78;21554;-82
2021/05/03 00:17:29;;;;;;;2.45;0.80;;;;;;;9.60;71.04;92467.24;1820158;78;21200;-85
2021/05/03 00:19:59;;;;;;;1.05;0.70;;;;;;;9.57;70.57;92463.39;1808630;79;21199;-81
2021/05/03 00:22:28;;;;;;;0.80;0.80;;;;;;;9.57;70.69;92468.82;1820285;78;21323;-81
2021/05/03 00:24:59;;;;;;;0.90;0.90;;;;;;;9.54;70.56;92477.02;1829170;77;21202;-80
2021/05/03 00:27:27;;;;;;;2.50;0.88;;;;;;;9.51;70.97;92470.45;1799657;78;21196;-81
2021/05/03 00:29:56;;;;;;;1.67;0.90;;;;;;;9.48;71.16;92474.02;1773623;79;21382;-79
2021/05/03 00:32:26;;;;;;;2.05;1.20;;;;;;;9.45;71.49;92482.97;1818604;78;21171;-83
2021/05/03 00:34:53;;;;;;;0.95;0.95;;;;;;;9.41;70.54;92470.81;1819281;78;21693;-79
2021/05/03 00:37:20;;;;;;;1.37;1.27;;;;;;;9.39;71.16;92473.74;1846285;77;21175;-80
2021/05/03 00:39:48;;;;;;;1.45;1.00;;;;;;;9.37;71.05;92489.09;1810457;78;21190;-81
2021/05/03 00:42:15;;;;;;;0.80;0.80;;;;;;;9.33;70.84;92487.61;1849056;77;21183;-81
2021/05/03 00:44:43;;;;;;;2.00;1.40;;;;;;;9.27;70.42;92491.95;1851420;77;21175;-81
2021/05/03 00:47:10;;;;;;;1.12;1.07;;;;;;;9.23;70.52;92486.57;1776547;79;22101;-77
2021/05/03 00:49:40;;;;;;;1.80;1.20;;;;;;;9.17;70.93;92485.48;1776990;79;21625;-82
2021/05/03 00:52:07;;;;;;;1.80;1.07;;;;;;;9.11;70.70;92487.89;1801886;79;21179;-80
2021/05/03 00:54:35;;;;;;;4.72;1.00;;;;;;;9.08;71.05;92489.30;1819643;77;21187;-81
2021/05/03 00:57:02;;;;;;;2.05;0.98;;;;;;;9.03;71.32;92489.17;1834950;77;21628;-77
2021/05/03 00:59:29;;;;;;;1.30;0.88;;;;;;;8.96;70.63;92496.03;1795194;79;21370;-77
2021/05/03 01:01:57;;;;;;;2.37;1.40;;;;;;;8.90;71.00;92490.88;1755064;79;21198;-82
2021/05/03 01:04:25;;;;;;;1.27;1.17;;;;;;;8.85;71.30;92489.39;1842048;77;21167;-82
2021/05/03 01:06:53;;;;;;;1.90;1.30;;;;;;;8.83;70.60;92480.11;1806763;79;21171;-77
2021/05/03 01:09:21;;;;;;;1.12;1.02;;;;;;;8.79;71.36;92495.06;1843301;77;21663;-77
2021/05/03 01:11:49;;;;;;;1.50;1.40;;;;;;;8.74;71.27;92480.03;1850244;77;22170;-82
2021/05/03 01:14:16;;;;;;;1.60;1.02;;;;;;;8.69;70.61;92491.91;1802623;78;21184;-77
2021/05/03 01:16:43;;;;;;;1.27;1.20;;;;;;;8.67;70.67;92494.25;1796265;78;21191;-79
2021/05/03 01:19:11;;;;;;;0.90;0.85;;;;;;;8.66;71.05;92492.72;1784664;79;21160;-80
2021/05/03 01:21:39;;;;;;;1.30;1.22;;;;;;;8.62;70.97;92482.51;1818368;78;21191;-80
2021/05/03 01:24:07;;;;;;;1.05;1.02;;;;;;;8.57;70.89;92472.09;1802941;78;21466;-79
2021/05/03 01:26:35;;;;;;;2.75;1.12;;;;;;;8.55;71.60;92478.52;1804544;79;21638;-77
2021/05/03 01:29:02;;;;;;;1.12;1.02;;;;;;;8.49;72.00;92482.25;1804984;79;21444;-80
2021/05/03 01:31:30;;;;;;;0.70;0.70;;;;;;;8.45;71.47;92478.22;1803512;79;21121;-80
2021/05/03 01:34:06;;;;;;;1.22;1.07;;;;;;;8.43;71.44;92470.34;1803243;79;21128;-80
2021/05/03 01:36:38;;;;;;;1.32;1.17;;;;;;;8.40;71.45;92472.49;1837917;76;21358;-81
2021/05/03 01:39:06;;;;;;;1.10;1.10;;;;;;;8.35;69.80;92465.55;1872020;76;21223;-82
2021/05/03 01:41:35;;;;;;;1.35;1.02;;;;;;;8.34;69.95;92458.58;1846685;77;21167;-81
2021/05/03 01:44:06;;;;;;;0.85;0.82;;;;;;;8.31;71.08;92472.92;1790663;78;21127;-80
2021/05/03 01:46:36;;;;;;;1.00;1.00;;;;;;;8.28;71.02;92478.58;1804451;79;21175;-80
2021/05/03 01:49:07;;;;;;;1.45;0.70;;;;;;;8.30;70.71;92485.52;1821280;78;22620;-79
2021/05/03 01:51:38;;;;;;;2.22;0.80;;;;;;;8.26;70.92;92499.87;1817234;78;21636;-76
2021/05/03 01:54:06;;;;;;;0.72;0.72;;;;;;;8.25;70.67;92498.34;1837157;78;21148;-81
2021/05/03 01:56:34;;;;;;;0.90;0.90;;;;;;;8.25;70.68;92514.59;1802425;79;21179;-79
2021/05/03 01:59:06;;;;;;;4.20;1.17;;;;;;;8.25;70.58;92518.65;1831140;78;21144;-83
2021/05/03 02:01:39;;;;;;;1.60;1.32;;;;;;;8.26;70.57;92525.59;1801662;78;21261;-80
2021/05/03 02:04:07;;;;;;;0.93;0.93;;;;;;;8.29;71.01;92522.69;1864346;76;21180;-81
2021/05/03 02:06:38;;;;;;;3.02;1.10;;;;;;;8.30;71.14;92528.86;1845156;77;21134;-80
2021/05/03 02:09:11;;;;;;;1.30;1.20;;;;;;;8.31;71.19;92533.10;1838808;77;21172;-82
2021/05/03 02:11:40;;;;;;;1.00;1.00;;;;;;;8.30;70.97;92526.92;1820945;78;21461;-81
2021/05/03 02:14:09;;;;;;;3.60;1.05;;;;;;;8.32;70.82;92523.83;1796741;78;21191;-83
2021/05/03 02:16:37;;;;;;;2.87;1.20;;;;;;;8.33;71.07;92521.30;1795878;79;21227;-83
2021/05/03 02:19:05;;;;;;;2.22;1.40;;;;;;;8.32;71.07;92519.77;1811239;79;21172;-79
2021/05/03 02:21:32;;;;;;;1.30;1.20;;;;;;;8.32;71.16;92525.95;1834029;77;21084;-82
2021/05/03 02:23:59;;;;;;;2.37;1.47;;;;;;;8.28;70.84;92521.91;1788183;79;21154;-83
2021/05/03 02:26:27;;;;;;;2.12;1.20;;;;;;;8.25;71.32;92526.02;1803626;78;22261;-84
2021/05/03 02:28:56;;;;;;;3.10;1.40;;;;;;;8.23;70.87;92516.92;1803067;79;21167;-84
2021/05/03 02:31:24;;;;;;;1.60;1.50;;;;;;;8.24;71.59;92521.19;1798891;78;21207;-81
2021/05/03 02:33:52;;;;;;;1.65;1.40;;;;;;;8.22;71.26;92524.86;1858671;76;21106;-81
2021/05/03 02:36:19;;;;;;;1.95;1.22;;;;;;;8.20;70.98;92531.87;1846915;77;21101;-82
2021/05/03 02:38:47;;;;;;;1.40;1.30;;;;;;;8.19;71.24;92536.50;1785340;80;21338;-82
2021/05/03 02:41:14;;;;;;;1.72;1.27;;;;;;;8.22;70.30;92539.00;1800859;79;22123;-83
2021/05/03 02:43:42;;;;;;;3.98;2.12;;;;;;;8.22;70.67;92539.77;1809689;78;21543;-85
2021/05/03 02:46:10;;;;;;;6.35;2.42;;;;;;;8.24;71.70;92550.98;1821528;78;21211;-81
2021/05/03 02:48:38;;;;;;;5.37;3.05;;;;;;;8.19;72.36;92556.80;1819065;77;21171;-82
2021/05/03 02:51:07;;;;;;;4.65;3.20;;;;;;;8.16;72.62;92556.84;1841247;77;22639;-82
2021/05/03 02:53:35;;;;;;;5.45;3.65;;;;;;;8.07;72.94;92559.25;1838171;76;21176;-80
2021/05/03 02:56:03;;;;;;;2.92;2.62;;;;;;;7.92;72.82;92559.36;1788462;78;21622;-82
2021/05/03 02:58:31;;;;;;;3.95;1.57;;;;;;;7.90;73.67;92559.00;1802480;79;21189;-82
2021/05/03 03:00:58;;;;;;;1.85;1.37;;;;;;;7.92;72.88;92568.06;1815632;77;21151;-84
2021/05/03 03:03:25;;;;;;;2.50;2.27;;;;;;;7.94;71.66;92567.86;1786446;79;21211;-85
2021/05/03 03:05:53;;;;;;;1.27;1.10;;;;;;;8.00;72.05;92572.25;1818048;78;21171;-82
2021/05/03 03:08:20;;;;;;;5.72;4.00;;;;;;;8.03;71.27;92570.11;1831528;78;21551;-81
2021/05/03 03:10:48;;;;;;;7.00;4.45;;;;;;;8.03;71.89;92569.52;1840421;78;21176;-80
2021/05/03 03:13:16;;;;;;;7.45;3.40;;;;;;;8.00;72.06;92566.25;1834147;78;21110;-79
2021/05/03 03:15:44;;;;;;;2.90;1.85;;;;;;;7.95;72.50;92572.09;1872458;76;21272;-80
2021/05/03 03:18:13;;;;;;;2.92;1.00;;;;;;;7.90;72.93;92579.30;1802059;78;21164;-81
2021/05/03 03:20:41;;;;;;;1.15;1.05;;;;;;;7.84;73.37;92578.77;1852820;77;21166;-82
2021/05/03 03:23:09;;;;;;;2.12;1.50;;;;;;;7.77;73.35;92578.22;1812094;78;21121;-83
2021/05/03 03:25:36;;;;;;;5.97;1.22;;;;;;;7.75;73.28;92581.92;1807331;79;21477;-82
2021/05/03 03:28:04;;;;;;;1.82;0.90;;;;;;;7.75;73.02;92582.69;1809780;79;22363;-82
2021/05/03 03:30:31;;;;;;;0.98;0.93;;;;;;;7.76;73.04;92586.16;1835158;77;21147;-85
2021/05/03 03:32:59;;;;;;;5.53;1.10;;;;;;;7.77;72.82;92584.98;1778523;80;21159;-78
2021/05/03 03:35:28;;;;;;;2.37;1.15;;;;;;;7.79;73.27;92584.02;1800728;79;21211;-83
2021/05/03 03:37:55;;;;;;;3.25;0.80;;;;;;;7.80;72.91;92593.67;1803498;79;21204;-84
2021/05/03 03:40:23;;;;;;;1.87;0.90;;;;;;;7.80;72.84;92600.44;1800659;78;22079;-81
2021/05/03 03:42:50;;;;;;;1.22;0.95;;;;;;;7.83;72.92;92614.53;1860516;76;21084;-84
2021/05/03 03:45:18;;;;;;;1.15;0.95;;;;;;;7.86;72.79;92617.81;1808984;79;21174;-81
2021/05/03 03:47:46;;;;;;;2.85;0.85;;;;;;;7.90;72.68;92622.61;1811803;77;21144;-82
2021/05/03 03:50:14;;;;;;;2.50;0.88;;;;;;;7.93;72.50;92631.27;1813475;78;21204;-84
2021/05/03 03:52:42;;;;;;;1.92;0.95;;;;;;;7.95;72.70;92635.72;1831331;77;22345;-80
2021/05/03 03:55:10;;;;;;;1.07;0.98;;;;;;;7.95;72.37;92643.07;1785996;80;21760;-82
2021/05/03 03:57:38;;;;;;;2.77;1.02;;;;;;;7.95;71.71;92653.31;1817696;78;21168;-84
2021/05/03 04:00:07;;;;;;;1.20;0.85;;;;;;;7.97;71.77;92650.20;1785674;80;21179;-83
2021/05/03 04:02:36;;;;;;;1.10;1.05;;;;;;;7.97;72.07;92657.76;1818180;78;21507;-81
2021/05/03 04:26:16;;;;;;;9.48;3.08;;;;;;;7.95;71.96;92674.97;1830041;77;21207;-79
2021/05/03 04:28:46;;;;;;;1.92;1.72;;;;;;;7.95;73.04;92679.62;1819336;78;21186;-80
2021/05/03 04:31:14;;;;;;;2.12;1.90;;;;;;;7.94;72.20;92679.44;1839363;77;21452;-81
2021/05/03 04:33:42;;;;;;;1.75;1.50;;;;;;;7.94;72.48;92678.84;1800639;78;21164;-80
2021/05/03 04:36:11;;;;;;;5.00;1.23;;;;;;;7.97;72.97;92684.83;1832696;77;21534;-81
2021/05/03 04:38:38;;;;;;;1.32;1.22;;;;;;;8.01;73.19;92685.58;1803515;78;21183;-78
2021/05/03 04:41:06;;;;;;;1.45;1.22;;;;;;;8.03;72.62;92689.23;1845373;77;21649;-80
2021/05/03 04:43:34;;;;;;;1.50;1.40;;;;;;;8.04;72.20;92676.64;1847421;77;21346;-79
2021/05/03 04:46:02;;;;;;;2.10;1.90;;;;;;;8.04;72.54;92684.00;1810490;79;21165;-82
2021/05/03 04:48:30;;;;;;;4.05;2.02;;;;;;;8.00;72.94;92683.25;1840841;77;21722;-83
2021/05/03 04:50:58;;;;;;;1.47;1.35;;;;;;;8.01;73.07;92684.78;1840576;78;21189;-80
2021/05/03 04:53:26;;;;;;;1.67;1.57;;;;;;;8.02;72.29;92692.52;1839241;78;21502;-78
2021/05/03 04:55:56;;;;;;;2.25;1.82;;;;;;;8.02;72.39;92691.76;1840633;77;21179;-76
2021/05/03 04:58:27;;;;;;;2.12;1.98;;;;;;;8.01;72.82;92691.55;1837393;77;21241;-78
2021/05/03 05:00:54;;;;;;;3.25;2.20;;;;;;;8.03;72.48;92692.70;1874692;76;21139;-81
2021/05/03 05:03:22;;;;;;;1.85;1.42;;;;;;;8.04;72.30;92690.18;1854831;76;21136;-81
2021/05/03 05:05:51;;;;;;;2.50;2.30;;;;;;;8.10;72.36;92691.90;1825940;77;21206;-83
2021/05/03 05:08:20;;;;;;;2.50;2.27;;;;;;;8.15;72.54;92694.77;1818726;78;22113;-80
2021/05/03 05:10:47;;;;;;;1.77;1.40;;;;;;;8.20;73.05;92694.36;1815926;77;21175;-81
2021/05/03 05:13:15;;;;;;;2.17;1.95;;;;;;;8.27;72.86;92699.14;1835886;78;21645;-80
2021/05/03 05:15:42;;;;;;;4.80;3.20;;;;;;;8.33;72.50;92704.13;1802756;79;21176;-82
2021/05/03 05:18:12;;;;;;;2.90;2.55;;;;;;;8.34;72.34;92702.37;1832798;78;21163;-82
2021/05/03 05:20:41;;;;;;;2.47;2.08;;;;;;;8.37;72.96;92698.90;1795868;79;21123;-82
2021/05/03 05:23:09;;;;;;;4.67;3.75;;;;;;;8.45;72.72;92699.61;1809672;79;21668;-80
2021/05/03 05:25:36;;;;;;;2.75;2.55;;;;;;;8.47;72.24;92701.36;1786700;78;21240;-81
2021/05/03 05:28:04;;;;;;;4.45;2.58;;;;;;;8.46;71.95;92705.22;1839688;78;21775;-84
2021/05/03 05:30:32;;;;;;;2.20;2.00;;;;;;;8.47;72.14;92716.26;1800714;79;21235;-84
2021/05/03 05:33:00;;;;;;;3.00;2.58;;;;;;;8.49;71.67;92713.31;1787129;80;21933;-85
2021/05/03 05:35:28;;;;;;;2.75;2.50;;;;;;;8.48;71.39;92716.44;1804723;78;21978;-79
2021/05/03 05:37:56;;;;;;;3.98;2.90;;;;;;;8.48;71.43;92719.91;1810277;79;21536;-80
2021/05/03 05:40:24;;;;;;;3.52;2.45;;;;;;;8.47;71.58;92724.38;1809782;79;21425;-78
2021/05/03 05:42:51;;;;;;;3.62;3.25;;;;;;;8.46;71.59;92726.33;1810458;79;21153;-80
2021/05/03 05:45:20;;;;;;;6.05;2.98;;;;;;;8.45;71.81;92725.35;1808809;79;22361;-82
2021/05/03 05:47:48;;;;;;;3.95;3.10;;;;;;;8.41;70.86;92730.80;1809687;79;21655;-81
2021/05/03 05:50:15;;;;;;;3.27;2.15;;;;;;;8.39;70.88;92731.80;1809581;79;21176;-81
2021/05/03 05:52:43;;;;;;;3.65;3.02;;;;;;;8.32;71.18;92733.16;1835942;78;21279;-82
2021/05/03 05:55:11;;;;;;;3.15;2.85;;;;;;;8.26;70.58;92735.50;1853112;77;21143;-79
2021/05/03 05:57:39;;;;;;;3.77;2.90;;;;;;;8.19;71.00;92732.07;1805837;78;21221;-81
2021/05/03 06:00:08;;;;;;;5.40;3.15;;;;;;;8.08;71.51;92737.55;1783744;79;21357;-80
2021/05/03 06:02:42;;;;;;;3.60;2.80;;;;;;;7.99;71.75;92744.75;1793788;78;21148;-81
2021/05/03 06:05:11;;;;;;;3.60;3.15;;;;;;;7.94;72.19;92736.28;1792320;77;21167;-81
2021/05/03 06:07:39;;;;;;;9.70;3.58;;;;;;;7.91;72.19;92745.19;1850607;77;21154;-82
2021/05/03 06:10:09;;;;;;;4.08;3.67;;;;;;;7.85;71.49;92738.63;1818716;77;21362;-79
2021/05/03 06:12:36;;;;;;;3.40;2.90;;;;;;;7.77;71.38;92744.66;1808962;78;21497;-80
2021/05/03 06:15:07;;;;;;;4.15;3.17;;;;;;;7.69;72.15;92745.86;1811133;79;21180;-84
2021/05/03 06:17:34;;;;;;;5.78;3.27;;;;;;;7.61;71.69;92742.41;1820886;77;21187;-83
2021/05/03 06:20:04;;;;;;;3.17;2.80;;;;;;;7.51;72.24;92749.97;1838437;76;21181;-79
2021/05/03 06:22:33;;;;;;;4.97;2.92;;;;;;;7.47;72.95;92743.80;1826403;78;22106;-81
2021/05/03 06:25:01;;;;;;;3.40;2.60;;;;;;;7.46;73.21;92740.33;1807479;79;21159;-83
2021/05/03 06:27:28;;;;;;;4.15;3.52;;;;;;;7.48;73.74;92743.98;1814421;77;21951;-83
2021/05/03 06:29:56;;;;;;;3.87;3.25;;;;;;;7.49;73.80;92754.44;1813464;77;21202;-79
2021/05/03 06:32:24;;;;;;;4.03;3.12;;;;;;;7.51;73.14;92752.68;1829192;77;21158;-82
2021/05/03 06:34:53;;;;;;;6.90;3.30;;;;;;;7.47;73.04;92760.80;1847965;77;21402;-83
2021/05/03 06:37:20;;;;;;;5.72;3.25;;;;;;;7.45;73.61;92755.03;1806090;79;21233;-82
2021/05/03 06:39:48;;;;;;;3.37;2.75;;;;;;;7.46;73.71;92755.80;1800310;79;21184;-82
2021/05/03 06:42:15;;;;;;;3.92;3.20;;;;;;;7.59;74.49;92761.55;1832787;77;21167;-82
2021/05/03 06:44:43;;;;;;;5.12;3.90;;;;;;;7.77;74.25;92768.44;1845456;77;21152;-82
2021/05/03 06:47:14;;;;;;;4.70;3.40;;;;;;;7.92;74.00;92769.73;1784409;80;21247;-82
2021/05/03 06:49:41;;;;;;;5.05;3.40;;;;;;;8.02;73.85;92768.34;1816606;78;21151;-84
2021/05/03 06:52:10;;;;;;;4.47;3.60;;;;;;;8.12;73.00;92768.08;1784616;80;22010;-82
2021/05/03 06:54:38;;;;;;;3.62;3.27;;;;;;;8.14;72.24;92771.17;1816403;78;21152;-82
2021/05/03 06:57:06;;;;;;;4.70;3.60;;;;;;;8.11;72.18;92776.02;1816854;77;21173;-82
2021/05/03 06:59:33;;;;;;;4.85;3.50;;;;;;;8.05;72.33;92781.68;1831374;77;21460;-80
2021/05/03 07:02:00;;;;;;;3.52;3.22;;;;;;;8.00;72.57;92782.07;1869850;76;21304;-81
2021/05/03 07:04:28;;;;;;;4.55;3.15;;;;;;;7.95;72.82;92783.26;1844395;77;21409;-82
2021/05/03 07:06:55;;;;;;;3.42;2.83;;;;;;;7.90;72.44;92785.59;1789320;78;21210;-81
2021/05/03 07:09:23;;;;;;;3.87;3.10;;;;;;;7.82;72.44;92779.43;1809133;78;21203;-81
2021/05/03 07:11:51;;;;;;;2.62;2.27;;;;;;;7.72;72.52;92779.67;1810014;79;21358;-81
2021/05/03 07:14:19;;;;;;;3.17;2.87;;;;;;;7.63;73.14;92782.01;1826333;76;21231;-82
2021/05/03 07:16:47;;;;;;;3.83;2.52;;;;;;;7.58;73.23;92781.06;1785964;78;21476;-82
2021/05/03 07:19:15;;;;;;;4.35;3.50;;;;;;;7.57;73.70;92799.83;1839238;78;21260;-83
2021/05/03 07:21:43;;;;;;;3.20;2.83;;;;;;;7.51;73.35;92791.91;1788157;79;21157;-80
2021/05/03 07:24:12;;;;;;;4.05;3.60;;;;;;;7.40;72.46;92801.39;1787190;78;21442;-83
2021/05/03 07:26:41;;;;;;;6.20;5.60;;;;;;;7.35;73.95;92804.50;1861689;76;21160;-80
2021/05/03 07:29:09;;;;;;;5.22;3.27;;;;;;;7.26;72.73;92799.50;1848878;77;21162;-84
2021/05/03 07:31:36;;;;;;;5.15;2.90;;;;;;;7.10;74.80;92805.87;1798684;79;21160;-82
2021/05/03 07:34:04;;;;;;;3.87;2.60;;;;;;;7.02;75.41;92813.80;1871098;76;21179;-81
2021/05/03 07:36:32;;;;;;;3.37;2.70;;;;;;;7.01;75.11;92814.39;1860629;76;21253;-81
2021/05/03 07:39:00;;;;;;;5.17;3.55;;;;;;;7.00;75.21;92817.48;1837184;77;21156;-82
2021/05/03 07:41:28;;;;;;;73.20;64.22;;;;;;;6.98;75.13;92811.68;1827124;78;21201;-82
2021/05/03 07:43:56;;;;;;;9.45;7.05;;;;;;;6.90;76.25;92821.72;1819052;78;21662;-83
2021/05/03 07:46:25;;;;;;;40.58;36.20;;;;;;;6.91;76.26;92811.09;1853059;77;21135;-81
2021/05/03 07:48:54;;;;;;;28.35;24.67;;;;;;;6.97;76.73;92815.55;1796188;78;21253;-81
2021/05/03 07:51:23;;;;;;;13.68;11.88;;;;;;;7.06;77.64;92819.39;1819274;78;21187;-82
2021/05/03 07:53:55;;;;;;;8.80;6.00;;;;;;;7.17;77.80;92819.39;1836980;77;21164;-82
2021/05/03 07:56:23;;;;;;;5.58;3.10;;;;;;;7.33;77.59;92814.92;1795923;79;21245;-81
2021/05/03 07:58:50;;;;;;;8.40;5.72;;;;;;;7.51;76.44;92823.78;1801850;79;21689;-83
2021/05/03 08:01:18;;;;;;;3.75;3.37;;;;;;;7.72;74.14;92812.73;1842337;77;21728;-82
2021/05/03 08:03:45;;;;;;;4.78;3.85;;;;;;;7.91;74.82;92820.41;1767816;81;21199;-83
2021/05/03 08:06:14;;;;;;;5.22;3.95;;;;;;;8.07;75.81;92821.89;1776104;79;21625;-81
2021/05/03 08:08:45;;;;;;;5.75;4.37;;;;;;;8.17;75.68;92823.79;1812567;78;21171;-82
2021/05/03 08:11:13;;;;;;;4.17;3.47;;;;;;;8.22;75.82;92820.66;1811027;77;21151;-81
2021/05/03 08:13:43;;;;;;;8.55;5.60;;;;;;;8.28;75.21;92825.86;1840284;78;21466;-81
2021/05/03 08:16:14;;;;;;;4.40;3.67;;;;;;;8.31;74.71;92829.70;1814967;77;21179;-81
2021/05/03 08:18:41;;;;;;;3.35;3.05;;;;;;;8.33;73.65;92833.57;1828817;77;21717;-81
2021/05/03 08:21:09;;;;;;;5.80;3.92;;;;;;;8.28;72.55;92827.98;1807383;78;21154;-83
2021/05/03 08:23:37;;;;;;;3.27;2.98;;;;;;;8.21;73.08;92825.89;1807397;78;21160;-83
2021/05/03 08:26:04;;;;;;;5.50;3.80;;;;;;;8.19;73.12;92827.63;1825830;78;21356;-85
2021/05/03 08:28:32;;;;;;;6.75;3.60;;;;;;;8.16;73.48;92834.41;1810495;78;21209;-83
2021/05/03 08:30:59;;;;;;;6.72;3.90;;;;;;;8.11;73.20;92833.47;1824732;77;21222;-84
2021/05/03 08:33:27;;;;;;;6.25;4.15;;;;;;;7.97;73.06;92839.15;1818410;78;21243;-86
2021/05/03 08:35:56;;;;;;;6.33;4.00;;;;;;;7.89;73.02;92839.55;1818829;78;21174;-82
2021/05/03 08:38:24;;;;;;;6.05;3.98;;;;;;;7.79;73.69;92847.31;1818747;78;22228;-82
2021/05/03 08:40:53;;;;;;;4.97;3.50;;;;;;;7.76;73.79;92852.73;1839914;78;21177;-81
2021/05/03 08:43:21;;;;;;;11.50;7.17;;;;;;;7.71;73.79;92851.77;1840140;77;21157;-83
2021/05/03 08:45:48;;;;;;;5.97;4.37;;;;;;;7.66;72.57;92850.23;1842385;78;21652;-80
2021/05/03 08:53:35;;;;;;;6.12;3.58;;;;;;;7.62;74.27;92867.64;1811061;77;21171;-83
2021/05/03 08:56:01;;;;;;;5.17;4.30;;;;;;;7.58;74.25;92875.77;1838810;78;21617;-83
2021/05/03 08:58:28;;;;;;;3.20;2.77;;;;;;;7.54;74.39;92875.00;1813538;78;21174;-80
2021/05/03 09:00:56;;;;;;;4.12;3.55;;;;;;;7.52;72.31;92875.41;1809867;78;21591;-83
2021/05/03 09:03:24;;;;;;;2.58;2.37;;;;;;;7.50;71.66;92872.88;1861502;76;21862;-82
2021/05/03 09:05:51;;;;;;;4.17;3.55;;;;;;;7.52;70.65;92880.02;1851498;77;21119;-79
2021/05/03 09:08:23;;;;;;;4.67;2.20;;;;;;;7.53;71.30;92872.88;1834761;77;21192;-81
2021/05/03 09:10:51;;;;;;;2.70;2.50;;;;;;;7.52;70.56;92875.95;1796862;79;21169;-82
2021/05/03 09:13:34;;;;;;;3.00;1.85;;;;;;;7.53;70.51;92885.05;1797096;78;21137;-83
2021/05/03 09:16:23;;;;;;;4.33;3.52;;;;;;;7.57;70.08;92884.28;1804431;79;21631;-81
2021/05/03 09:18:51;;;;;;;3.22;2.87;;;;;;;7.59;70.66;92890.06;1842517;77;21163;-79
2021/05/03 09:21:34;;;;;;;3.12;2.12;;;;;;;7.63;70.98;92892.95;1813999;78;21112;-80
2021/05/03 09:24:18;;;;;;;2.15;1.90;;;;;;;7.66;70.33;92899.53;1810464;79;21044;-82
2021/05/03 09:27:00;;;;;;;1.60;1.42;;;;;;;7.68;70.67;92906.11;1835229;77;21160;-85
2021/05/03 09:29:29;;;;;;;1.52;1.42;;;;;;;7.71;69.05;92908.04;1782396;79;21365;-80
2021/05/03 09:32:09;;;;;;;1.77;1.62;;;;;;;7.71;69.19;92907.24;1827548;78;21151;-83
2021/05/03 09:34:42;;;;;;;2.33;1.98;;;;;;;7.72;68.86;92911.52;1788914;79;21167;-81
2021/05/03 09:37:38;;;;;;;2.22;1.90;;;;;;;7.70;69.63;92903.77;1794556;77;21108;-85
2021/05/03 09:40:18;;;;;;;2.27;2.08;;;;;;;7.71;69.74;92909.39;1827493;78;21195;-86
2021/05/03 09:42:56;;;;;;;2.40;2.20;;;;;;;7.69;69.68;92922.53;1818724;77;21422;-86
2021/05/03 09:45:25;;;;;;;2.98;1.98;;;;;;;7.67;69.88;92922.71;1818420;77;21207;-84
2021/05/03 09:47:55;;;;;;;3.05;2.12;;;;;;;7.66;70.10;92917.89;1793153;78;21156;-85
2021/05/03 09:50:30;;;;;;;3.00;1.90;;;;;;;7.68;69.98;92925.05;1805990;78;21201;-85
2021/05/03 09:53:09;;;;;;;2.12;1.98;;;;;;;7.72;70.07;92927.75;1835174;78;21243;-85
2021/05/03 09:55:44;;;;;;;2.58;2.00;;;;;;;7.73;71.31;92929.29;1792859;78;21677;-87
2021/05/03 09:58:21;;;;;;;1.92;1.60;;;;;;;7.75;70.70;92935.10;1821077;78;21175;-87
2021/05/03 10:00:56;;;;;;;2.85;1.52;;;;;;;7.76;71.33;92948.81;1821738;77;21175;-87
2021/05/03 10:03:34;;;;;;;2.33;1.90;;;;;;;7.73;67.40;92927.35;1791052;79;21364;-84
2021/05/03 10:06:00;;;;;;;2.50;2.02;;;;;;;7.61;66.83;92937.81;1790257;79;21342;-84
2021/05/03 10:08:28;;;;;;;2.10;2.00;;;;;;;7.62;68.40;92940.12;1845541;77;21187;-84
2021/05/03 10:11:01;;;;;;;2.22;2.00;;;;;;;7.74;68.37;92932.95;1842847;77;21669;-83
2021/05/03 10:13:26;;;;;;;2.22;2.02;;;;;;;7.90;67.94;92933.91;1848207;77;21183;-80
2021/05/03 10:15:57;;;;;;;2.77;2.37;;;;;;;8.05;67.70;92937.38;1852014;77;21697;-84
2021/05/03 10:18:27;;;;;;;2.40;2.20;;;;;;;8.13;67.21;92940.25;1825246;77;21156;-84
2021/05/03 10:20:58;;;;;;;2.95;2.40;;;;;;;8.15;66.52;92946.62;1851902;77;21203;-83
2021/05/03 10:23:27;;;;;;;2.15;1.95;;;;;;;8.17;66.20;92936.18;1802683;79;21187;-85
2021/05/03 10:25:57;;;;;;;6.05;4.65;;;;;;;8.19;66.84;92944.09;1848940;77;21144;-84
2021/05/03 10:28:25;;;;;;;3.17;2.02;;;;;;;8.23;67.18;92947.55;1798153;78;21211;-83
2021/05/03 10:30:59;;;;;;;3.85;2.15;;;;;;;8.25;65.99;92950.66;1802805;78;21611;-84
2021/05/03 10:33:37;;;;;;;2.98;2.42;;;;;;;8.20;65.58;92941.59;1827872;78;21255;-85
2021/05/03 10:36:05;;;;;;;3.50;3.20;;;;;;;8.16;65.93;92940.03;1814511;78;21079;-84
2021/05/03 10:38:42;;;;;;;2.60;2.40;;;;;;;8.10;66.86;92949.73;1814582;79;21152;-84
2021/05/03 10:41:31;;;;;;;2.50;2.25;;;;;;;8.04;67.52;92962.88;1815134;79;21144;-87
2021/05/03 10:44:17;;;;;;;2.22;2.08;;;;;;;8.01;68.04;92955.53;1814032;79;21176;-84
2021/05/03 10:49:19;;;;;;;2.02;1.87;;;;;;;7.87;68.13;92982.06;1802872;79;20383;-87
2021/05/03 10:51:52;;;;;;;2.10;1.90;;;;;;;7.79;67.63;92970.47;1802150;79;21164;-84
2021/05/03 10:57:10;;;;;;;2.37;2.17;;;;;;;7.76;69.08;92975.88;1801767;79;21585;-86
2021/05/03 10:59:49;;;;;;;2.33;1.95;;;;;;;7.81;69.10;92984.19;1766137;79;40175;-87
2021/05/03 11:02:22;;;;;;;2.80;2.00;;;;;;;7.94;69.68;92980.70;1803124;79;21663;-85
2021/05/03 11:05:24;;;;;;;2.10;1.62;;;;;;;8.09;67.81;92976.63;1779323;79;21147;-84
2021/05/03 11:13:47;;;;;;;2.00;1.80;;;;;;;8.00;65.92;92972.95;1782037;78;21415;-79
2021/05/03 11:16:32;;;;;;;1.75;1.65;;;;;;;7.97;64.05;92971.81;1840479;77;21052;-77
2021/05/03 11:19:02;;;;;;;4.45;3.33;;;;;;;8.02;64.84;92962.52;1804170;79;21159;-78
2021/05/03 11:21:45;;;;;;;5.42;3.33;;;;;;;8.20;65.73;92965.97;1771837;79;21164;-78
2021/05/03 11:24:22;;;;;;;2.58;2.35;;;;;;;8.42;66.36;92968.63;1810071;77;21076;-77
2021/05/03 11:27:00;;;;;;;2.27;2.08;;;;;;;8.66;65.41;92963.71;1823814;78;21188;-77
2021/05/03 11:29:23;;;;;;;2.45;2.02;;;;;;;8.80;63.48;92956.67;1801487;79;21180;-76
2021/05/03 11:31:51;;;;;;;1.85;1.75;;;;;;;8.86;63.82;92957.22;1799953;79;21254;-77
2021/05/03 11:34:22;;;;;;;1.72;1.62;;;;;;;8.92;62.50;92965.14;1789009;77;21693;-79
2021/05/03 11:36:56;;;;;;;1.90;1.75;;;;;;;8.87;58.68;92953.34;1797734;78;21084;-78
2021/05/03 11:39:43;;;;;;;1.57;1.47;;;;;;;8.77;61.25;92957.48;1760988;80;21450;-77
2021/05/03 11:44:56;;;;;;;5.53;2.77;;;;;;;8.65;60.85;92955.95;1817707;78;20224;-80
2021/05/03 11:47:42;;;;;;;2.20;2.00;;;;;;;8.62;59.86;92970.32;1787693;78;21194;-79
2021/05/03 11:50:15;;;;;;;;;;;;;;;;;;;;;
2021/05/03 11:52:45;;;;;;;2.35;1.30;;;;;;;8.42;61.02;92969.98;1806159;79;21354;-81
2021/05/03 11:55:16;;;;;;;1.60;1.50;;;;;;;8.33;61.39;92964.19;1800010;79;21211;-81
2021/05/03 11:57:47;;;;;;;2.05;1.80;;;;;;;8.24;63.09;92962.66;1825667;77;21203;-80
2021/05/03 12:00:34;;;;;;;2.12;1.92;;;;;;;8.22;65.30;92959.56;1840455;77;21190;-82
2021/05/03 12:03:07;;;;;;;1.75;1.65;;;;;;;8.21;64.56;92964.80;1842386;77;21353;-81
2021/05/03 12:05:35;;;;;;;2.25;2.02;;;;;;;8.21;65.43;92975.63;1821027;78;21381;-82
2021/05/03 12:08:15;;;;;;;2.05;1.85;;;;;;;8.32;64.52;92968.06;1840619;77;21164;-82
2021/05/03 12:10:43;;;;;;;3.30;2.00;;;;;;;8.41;63.61;92962.44;1803037;79;22257;-80
2021/05/03 12:13:15;;;;;;;2.25;2.05;;;;;;;8.49;64.39;92965.31;1836990;77;21152;-81
2021/05/03 12:15:43;;;;;;;4.87;2.42;;;;;;;8.55;62.98;92965.69;1806972;79;21450;-79
2021/05/03 12:18:19;;;;;;;3.47;2.92;;;;;;;8.59;63.52;92963.73;1814124;77;21373;-80
2021/05/03 12:20:46;;;;;;;1.98;1.77;;;;;;;8.59;61.71;92961.03;1806792;79;21572;-80
2021/05/03 12:23:16;;;;;;;1.47;1.35;;;;;;;8.53;57.95;92942.27;1838788;77;21183;-79
2021/05/03 12:28:26;;;;;;;2.00;1.80;;;;;;;8.36;61.59;92941.73;1810359;78;21154;-81
2021/05/03 12:30:58;;;;;;;2.08;1.87;;;;;;;8.29;61.88;92945.23;1798996;78;21334;-81
2021/05/03 12:33:27;;;;;;;1.90;1.57;;;;;;;8.28;62.45;92945.05;1821752;78;21539;-83
2021/05/03 12:35:55;;;;;;;2.45;1.30;;;;;;;8.29;58.90;92943.87;1802766;79;21267;-80
2021/05/03 12:38:28;;;;;;;2.52;1.95;;;;;;;8.27;58.58;92937.51;1802822;79;21214;-80